sensor_id;sensor_type;location;lat;lon;timestamp;temperature;humidity
3380;DHT22;1703;51.964;7.642;2023-08-06T00:00:26;16.60;99.90
3380;DHT22;1703;51.964;7.642;2023-08-06T00:02:53;16.60;99.90
3380;DHT22;1703;51.964;7.642;2023-08-06T00:05:20;16.60;99.90
3380;DHT22;1703;51.964;7.642;2023-08-06T00:07:47;16.50;99.90
3380;DHT22;1703;51.964;7.642;2023-08-06T00:10:15;16.50;99.90
3380;DHT22;1703;51.964;7.642;2023-08-06T00:12:42;16.50;99.90
3380;DHT22;1703;51.964;7.642;2023-08-06T00:15:10;16.60;99.90
3380;DHT22;1703;51.964;7.642;2023-08-06T00:17:37;16.60;99.90
3380;DHT22;1703;51.964;7.642;2023-08-06T00:20:05;16.60;99.90
3380;DHT22;1703;51.964;7.642;2023-08-06T00:22:32;16.50;99.90
3380;DHT22;1703;51.964;7.642;2023-08-06T00:24:59;16.50;99.90
3380;DHT22;1703;51.964;7.642;2023-08-06T00:27:27;16.40;99.90
3380;DHT22;1703;51.964;7.642;2023-08-06T00:29:54;16.40;99.90
3380;DHT22;1703;51.964;7.642;2023-08-06T00:32:22;16.40;99.90
3380;DHT22;1703;51.964;7.642;2023-08-06T00:34:49;16.40;99.90
3380;DHT22;1703;51.964;7.642;2023-08-06T00:37:16;16.40;99.90
3380;DHT22;1703;51.964;7.642;2023-08-06T00:39:43;16.40;99.90
3380;DHT22;1703;51.964;7.642;2023-08-06T00:42:10;16.40;99.90
3380;DHT22;1703;51.964;7.642;2023-08-06T00:44:38;16.40;99.90
3380;DHT22;1703;51.964;7.642;2023-08-06T00:47:08;16.50;99.90
3380;DHT22;1703;51.964;7.642;2023-08-06T00:49:35;16.50;99.90
3380;DHT22;1703;51.964;7.642;2023-08-06T00:52:04;16.50;99.90
3380;DHT22;1703;51.964;7.642;2023-08-06T00:54:33;16.60;99.90
3380;DHT22;1703;51.964;7.642;2023-08-06T00:57:01;16.60;99.90
3380;DHT22;1703;51.964;7.642;2023-08-06T00:59:29;16.50;99.90
3380;DHT22;1703;51.964;7.642;2023-08-06T01:01:57;16.60;99.90
3380;DHT22;1703;51.964;7.642;2023-08-06T01:04:24;16.50;99.90
3380;DHT22;1703;51.964;7.642;2023-08-06T01:06:59;16.60;99.90
3380;DHT22;1703;51.964;7.642;2023-08-06T01:09:35;16.50;99.90
3380;DHT22;1703;51.964;7.642;2023-08-06T01:12:10;16.50;99.90
3380;DHT22;1703;51.964;7.642;2023-08-06T01:14:47;16.60;99.90
3380;DHT22;1703;51.964;7.642;2023-08-06T01:17:19;16.60;99.90
3380;DHT22;1703;51.964;7.642;2023-08-06T01:19:46;16.50;99.90
3380;DHT22;1703;51.964;7.642;2023-08-06T01:22:14;16.60;99.90
3380;DHT22;1703;51.964;7.642;2023-08-06T01:24:45;16.60;99.90
3380;DHT22;1703;51.964;7.642;2023-08-06T01:27:20;16.60;99.90
3380;DHT22;1703;51.964;7.642;2023-08-06T01:29:59;16.60;99.90
3380;DHT22;1703;51.964;7.642;2023-08-06T01:32:30;16.60;99.90
3380;DHT22;1703;51.964;7.642;2023-08-06T01:34:59;16.50;99.90
3380;DHT22;1703;51.964;7.642;2023-08-06T01:37:28;16.60;99.90
3380;DHT22;1703;51.964;7.642;2023-08-06T01:39:55;16.60;99.90
3380;DHT22;1703;51.964;7.642;2023-08-06T01:42:22;16.60;99.90
3380;DHT22;1703;51.964;7.642;2023-08-06T01:44:49;16.60;99.90
3380;DHT22;1703;51.964;7.642;2023-08-06T01:47:16;16.60;99.90
3380;DHT22;1703;51.964;7.642;2023-08-06T01:49:43;16.60;99.90
3380;DHT22;1703;51.964;7.642;2023-08-06T01:52:09;16.60;99.90
3380;DHT22;1703;51.964;7.642;2023-08-06T01:54:37;16.60;99.90
3380;DHT22;1703;51.964;7.642;2023-08-06T01:57:05;16.60;99.90
3380;DHT22;1703;51.964;7.642;2023-08-06T01:59:32;16.60;99.90
3380;DHT22;1703;51.964;7.642;2023-08-06T02:01:59;16.60;99.90
3380;DHT22;1703;51.964;7.642;2023-08-06T02:04:26;16.60;99.90
3380;DHT22;1703;51.964;7.642;2023-08-06T02:06:52;16.50;99.90
3380;DHT22;1703;51.964;7.642;2023-08-06T02:09:19;16.50;99.90
3380;DHT22;1703;51.964;7.642;2023-08-06T02:11:47;16.40;99.90
3380;DHT22;1703;51.964;7.642;2023-08-06T02:14:14;16.40;99.90
3380;DHT22;1703;51.964;7.642;2023-08-06T02:16:41;16.40;99.90
3380;DHT22;1703;51.964;7.642;2023-08-06T02:19:08;16.40;99.90
3380;DHT22;1703;51.964;7.642;2023-08-06T02:21:35;16.40;99.90
3380;DHT22;1703;51.964;7.642;2023-08-06T02:24:02;16.40;99.90
3380;DHT22;1703;51.964;7.642;2023-08-06T02:26:29;16.40;99.90
3380;DHT22;1703;51.964;7.642;2023-08-06T02:28:57;16.50;99.90
3380;DHT22;1703;51.964;7.642;2023-08-06T02:31:24;16.50;99.90
3380;DHT22;1703;51.964;7.642;2023-08-06T02:33:51;16.50;99.90
3380;DHT22;1703;51.964;7.642;2023-08-06T02:36:19;16.50;99.90
3380;DHT22;1703;51.964;7.642;2023-08-06T02:38:46;16.50;99.90
3380;DHT22;1703;51.964;7.642;2023-08-06T02:41:13;16.40;99.90
3380;DHT22;1703;51.964;7.642;2023-08-06T02:43:40;16.30;99.90
3380;DHT22;1703;51.964;7.642;2023-08-06T02:46:08;16.30;99.90
3380;DHT22;1703;51.964;7.642;2023-08-06T02:48:35;16.30;99.90
3380;DHT22;1703;51.964;7.642;2023-08-06T02:51:02;16.40;99.90
3380;DHT22;1703;51.964;7.642;2023-08-06T02:53:31;16.40;99.90
3380;DHT22;1703;51.964;7.642;2023-08-06T02:56:00;16.40;99.90
3380;DHT22;1703;51.964;7.642;2023-08-06T02:58:37;16.40;99.90
3380;DHT22;1703;51.964;7.642;2023-08-06T03:01:22;16.40;99.90
3380;DHT22;1703;51.964;7.642;2023-08-06T03:03:56;16.40;99.90
3380;DHT22;1703;51.964;7.642;2023-08-06T03:06:29;16.30;99.90
3380;DHT22;1703;51.964;7.642;2023-08-06T03:08:58;16.30;99.90
3380;DHT22;1703;51.964;7.642;2023-08-06T03:11:26;16.30;99.90
3380;DHT22;1703;51.964;7.642;2023-08-06T03:13:58;16.30;99.90
3380;DHT22;1703;51.964;7.642;2023-08-06T03:16:27;16.30;99.90
3380;DHT22;1703;51.964;7.642;2023-08-06T03:18:54;16.30;99.90
3380;DHT22;1703;51.964;7.642;2023-08-06T03:21:21;16.40;99.90
3380;DHT22;1703;51.964;7.642;2023-08-06T03:23:48;16.30;99.90
3380;DHT22;1703;51.964;7.642;2023-08-06T03:26:17;16.30;99.90
3380;DHT22;1703;51.964;7.642;2023-08-06T03:28:45;16.40;99.90
3380;DHT22;1703;51.964;7.642;2023-08-06T03:31:13;16.30;99.90
3380;DHT22;1703;51.964;7.642;2023-08-06T03:33:44;16.30;99.90
3380;DHT22;1703;51.964;7.642;2023-08-06T03:36:15;16.30;99.90
3380;DHT22;1703;51.964;7.642;2023-08-06T03:38:42;16.30;99.90
3380;DHT22;1703;51.964;7.642;2023-08-06T03:41:12;16.30;99.90
3380;DHT22;1703;51.964;7.642;2023-08-06T03:43:39;16.30;99.90
3380;DHT22;1703;51.964;7.642;2023-08-06T03:46:10;16.30;99.90
3380;DHT22;1703;51.964;7.642;2023-08-06T03:48:37;16.30;99.90
3380;DHT22;1703;51.964;7.642;2023-08-06T03:51:05;16.30;99.90
3380;DHT22;1703;51.964;7.642;2023-08-06T03:53:32;16.30;99.90
3380;DHT22;1703;51.964;7.642;2023-08-06T03:55:59;16.30;99.90
3380;DHT22;1703;51.964;7.642;2023-08-06T03:58:26;16.20;99.90
3380;DHT22;1703;51.964;7.642;2023-08-06T04:00:59;16.20;99.90
3380;DHT22;1703;51.964;7.642;2023-08-06T04:03:28;16.20;99.90
3380;DHT22;1703;51.964;7.642;2023-08-06T04:05:55;16.30;99.90
3380;DHT22;1703;51.964;7.642;2023-08-06T04:08:23;16.30;99.90
3380;DHT22;1703;51.964;7.642;2023-08-06T04:10:51;16.30;99.90
3380;DHT22;1703;51.964;7.642;2023-08-06T04:13:18;16.30;99.90
3380;DHT22;1703;51.964;7.642;2023-08-06T04:15:46;16.40;99.90
3380;DHT22;1703;51.964;7.642;2023-08-06T04:18:13;16.40;99.90
3380;DHT22;1703;51.964;7.642;2023-08-06T04:20:42;16.40;99.90
3380;DHT22;1703;51.964;7.642;2023-08-06T04:23:10;16.30;99.90
3380;DHT22;1703;51.964;7.642;2023-08-06T04:25:39;16.40;99.90
3380;DHT22;1703;51.964;7.642;2023-08-06T04:28:06;16.40;99.90
3380;DHT22;1703;51.964;7.642;2023-08-06T04:30:33;16.40;99.90
3380;DHT22;1703;51.964;7.642;2023-08-06T04:33:02;16.40;99.90
3380;DHT22;1703;51.964;7.642;2023-08-06T04:35:28;16.40;99.90
3380;DHT22;1703;51.964;7.642;2023-08-06T04:37:56;16.50;99.90
3380;DHT22;1703;51.964;7.642;2023-08-06T04:40:23;16.40;99.90
3380;DHT22;1703;51.964;7.642;2023-08-06T04:42:51;16.40;99.90
3380;DHT22;1703;51.964;7.642;2023-08-06T04:45:19;16.40;99.90
3380;DHT22;1703;51.964;7.642;2023-08-06T04:47:46;16.50;99.90
3380;DHT22;1703;51.964;7.642;2023-08-06T04:50:13;16.50;99.90
3380;DHT22;1703;51.964;7.642;2023-08-06T04:52:39;16.50;99.90
3380;DHT22;1703;51.964;7.642;2023-08-06T04:55:06;16.50;99.90
3380;DHT22;1703;51.964;7.642;2023-08-06T04:57:33;16.50;99.90
3380;DHT22;1703;51.964;7.642;2023-08-06T05:00:02;16.50;99.90
3380;DHT22;1703;51.964;7.642;2023-08-06T05:02:30;16.60;99.90
3380;DHT22;1703;51.964;7.642;2023-08-06T05:04:57;16.60;99.90
3380;DHT22;1703;51.964;7.642;2023-08-06T05:07:24;16.60;99.90
3380;DHT22;1703;51.964;7.642;2023-08-06T05:09:51;16.60;99.90
3380;DHT22;1703;51.964;7.642;2023-08-06T05:12:18;16.70;99.90
3380;DHT22;1703;51.964;7.642;2023-08-06T05:14:44;16.70;99.90
3380;DHT22;1703;51.964;7.642;2023-08-06T05:17:13;16.60;99.90
3380;DHT22;1703;51.964;7.642;2023-08-06T05:19:39;16.60;99.90
3380;DHT22;1703;51.964;7.642;2023-08-06T05:22:06;16.60;99.90
3380;DHT22;1703;51.964;7.642;2023-08-06T05:24:33;16.60;99.90
3380;DHT22;1703;51.964;7.642;2023-08-06T05:27:00;16.60;99.90
3380;DHT22;1703;51.964;7.642;2023-08-06T05:29:26;16.60;99.90
3380;DHT22;1703;51.964;7.642;2023-08-06T05:31:53;16.70;99.90
3380;DHT22;1703;51.964;7.642;2023-08-06T05:34:21;16.70;99.90
3380;DHT22;1703;51.964;7.642;2023-08-06T05:36:48;16.80;99.90
3380;DHT22;1703;51.964;7.642;2023-08-06T05:39:15;16.70;99.90
3380;DHT22;1703;51.964;7.642;2023-08-06T05:41:42;16.70;99.90
3380;DHT22;1703;51.964;7.642;2023-08-06T05:44:08;16.80;99.90
3380;DHT22;1703;51.964;7.642;2023-08-06T05:46:35;16.80;99.90
3380;DHT22;1703;51.964;7.642;2023-08-06T05:49:02;16.80;99.90
3380;DHT22;1703;51.964;7.642;2023-08-06T05:51:30;16.80;99.90
3380;DHT22;1703;51.964;7.642;2023-08-06T05:53:57;16.80;99.90
3380;DHT22;1703;51.964;7.642;2023-08-06T05:56:24;16.90;99.90
3380;DHT22;1703;51.964;7.642;2023-08-06T05:58:51;16.90;99.90
3380;DHT22;1703;51.964;7.642;2023-08-06T06:01:18;16.90;99.90
3380;DHT22;1703;51.964;7.642;2023-08-06T06:03:45;16.90;99.90
3380;DHT22;1703;51.964;7.642;2023-08-06T06:06:12;16.90;99.90
3380;DHT22;1703;51.964;7.642;2023-08-06T06:08:40;16.90;99.90
3380;DHT22;1703;51.964;7.642;2023-08-06T06:11:07;17.00;99.90
3380;DHT22;1703;51.964;7.642;2023-08-06T06:13:34;17.10;99.90
3380;DHT22;1703;51.964;7.642;2023-08-06T06:16:01;17.10;99.90
3380;DHT22;1703;51.964;7.642;2023-08-06T06:18:27;17.20;99.90
3380;DHT22;1703;51.964;7.642;2023-08-06T06:20:54;17.20;99.90
3380;DHT22;1703;51.964;7.642;2023-08-06T06:23:21;17.30;99.90
3380;DHT22;1703;51.964;7.642;2023-08-06T06:25:49;17.30;99.90
3380;DHT22;1703;51.964;7.642;2023-08-06T06:28:17;17.40;99.90
3380;DHT22;1703;51.964;7.642;2023-08-06T06:30:44;17.40;99.90
3380;DHT22;1703;51.964;7.642;2023-08-06T06:33:10;17.50;99.90
3380;DHT22;1703;51.964;7.642;2023-08-06T06:35:37;17.50;99.90
3380;DHT22;1703;51.964;7.642;2023-08-06T06:38:04;17.60;99.90
3380;DHT22;1703;51.964;7.642;2023-08-06T06:40:31;17.60;99.90
3380;DHT22;1703;51.964;7.642;2023-08-06T06:43:00;17.70;99.90
3380;DHT22;1703;51.964;7.642;2023-08-06T06:45:26;17.80;99.90
3380;DHT22;1703;51.964;7.642;2023-08-06T06:47:53;17.80;99.90
3380;DHT22;1703;51.964;7.642;2023-08-06T06:50:20;17.90;99.90
3380;DHT22;1703;51.964;7.642;2023-08-06T06:52:47;18.00;99.90
3380;DHT22;1703;51.964;7.642;2023-08-06T06:55:13;18.00;99.90
3380;DHT22;1703;51.964;7.642;2023-08-06T06:57:40;18.00;99.90
3380;DHT22;1703;51.964;7.642;2023-08-06T07:00:09;18.00;99.90
3380;DHT22;1703;51.964;7.642;2023-08-06T07:02:37;18.00;99.90
3380;DHT22;1703;51.964;7.642;2023-08-06T07:05:05;18.00;99.90
3380;DHT22;1703;51.964;7.642;2023-08-06T07:07:33;18.00;99.90
3380;DHT22;1703;51.964;7.642;2023-08-06T07:09:59;18.20;99.90
3380;DHT22;1703;51.964;7.642;2023-08-06T07:12:26;18.20;99.90
3380;DHT22;1703;51.964;7.642;2023-08-06T07:14:53;18.30;99.90
3380;DHT22;1703;51.964;7.642;2023-08-06T07:17:21;18.40;99.90
3380;DHT22;1703;51.964;7.642;2023-08-06T07:19:48;18.40;99.90
3380;DHT22;1703;51.964;7.642;2023-08-06T07:22:15;18.40;99.90
3380;DHT22;1703;51.964;7.642;2023-08-06T07:24:41;18.50;99.90
3380;DHT22;1703;51.964;7.642;2023-08-06T07:27:08;18.60;99.90
3380;DHT22;1703;51.964;7.642;2023-08-06T07:29:35;18.60;99.90
3380;DHT22;1703;51.964;7.642;2023-08-06T07:32:02;18.70;99.90
3380;DHT22;1703;51.964;7.642;2023-08-06T07:34:30;18.70;99.90
3380;DHT22;1703;51.964;7.642;2023-08-06T07:36:57;18.80;99.90
3380;DHT22;1703;51.964;7.642;2023-08-06T07:39:24;18.80;99.90
3380;DHT22;1703;51.964;7.642;2023-08-06T07:41:50;18.80;99.90
3380;DHT22;1703;51.964;7.642;2023-08-06T07:44:17;18.80;99.90
3380;DHT22;1703;51.964;7.642;2023-08-06T07:46:44;18.80;99.90
3380;DHT22;1703;51.964;7.642;2023-08-06T07:49:11;18.80;99.90
3380;DHT22;1703;51.964;7.642;2023-08-06T07:51:39;18.90;99.90
3380;DHT22;1703;51.964;7.642;2023-08-06T07:54:06;18.90;99.90
3380;DHT22;1703;51.964;7.642;2023-08-06T07:56:33;19.00;99.90
3380;DHT22;1703;51.964;7.642;2023-08-06T07:59:01;19.10;99.90
3380;DHT22;1703;51.964;7.642;2023-08-06T08:01:28;19.20;99.90
3380;DHT22;1703;51.964;7.642;2023-08-06T08:03:55;19.20;99.90
3380;DHT22;1703;51.964;7.642;2023-08-06T08:06:21;19.30;99.90
3380;DHT22;1703;51.964;7.642;2023-08-06T08:08:50;19.30;99.90
3380;DHT22;1703;51.964;7.642;2023-08-06T08:11:17;19.40;99.90
3380;DHT22;1703;51.964;7.642;2023-08-06T08:13:44;19.50;99.90
3380;DHT22;1703;51.964;7.642;2023-08-06T08:16:11;19.50;99.90
3380;DHT22;1703;51.964;7.642;2023-08-06T08:18:38;19.50;99.90
3380;DHT22;1703;51.964;7.642;2023-08-06T08:21:04;19.40;99.90
3380;DHT22;1703;51.964;7.642;2023-08-06T08:23:31;19.40;99.90
3380;DHT22;1703;51.964;7.642;2023-08-06T08:26:00;19.20;99.90
3380;DHT22;1703;51.964;7.642;2023-08-06T08:28:27;19.20;99.90
3380;DHT22;1703;51.964;7.642;2023-08-06T08:30:54;19.20;99.90
3380;DHT22;1703;51.964;7.642;2023-08-06T08:33:21;19.30;99.90
3380;DHT22;1703;51.964;7.642;2023-08-06T08:35:48;19.30;99.90
3380;DHT22;1703;51.964;7.642;2023-08-06T08:38:15;19.40;99.90
3380;DHT22;1703;51.964;7.642;2023-08-06T08:40:46;19.30;99.90
3380;DHT22;1703;51.964;7.642;2023-08-06T08:43:15;19.30;99.90
3380;DHT22;1703;51.964;7.642;2023-08-06T08:45:42;19.30;99.90
3380;DHT22;1703;51.964;7.642;2023-08-06T08:48:12;19.40;99.90
3380;DHT22;1703;51.964;7.642;2023-08-06T08:50:40;19.50;99.90
3380;DHT22;1703;51.964;7.642;2023-08-06T08:53:08;19.50;99.90
3380;DHT22;1703;51.964;7.642;2023-08-06T08:55:38;19.40;99.90
3380;DHT22;1703;51.964;7.642;2023-08-06T08:58:05;19.30;99.90
3380;DHT22;1703;51.964;7.642;2023-08-06T09:00:34;19.30;99.90
3380;DHT22;1703;51.964;7.642;2023-08-06T09:03:01;19.30;99.90
3380;DHT22;1703;51.964;7.642;2023-08-06T09:05:29;19.30;99.90
3380;DHT22;1703;51.964;7.642;2023-08-06T09:08:00;19.30;99.90
3380;DHT22;1703;51.964;7.642;2023-08-06T09:10:28;19.30;99.90
3380;DHT22;1703;51.964;7.642;2023-08-06T09:12:56;19.40;99.90
3380;DHT22;1703;51.964;7.642;2023-08-06T09:15:24;19.50;99.90
3380;DHT22;1703;51.964;7.642;2023-08-06T09:17:53;19.50;99.90
3380;DHT22;1703;51.964;7.642;2023-08-06T09:20:20;19.50;99.90
3380;DHT22;1703;51.964;7.642;2023-08-06T09:22:47;19.30;99.90
3380;DHT22;1703;51.964;7.642;2023-08-06T09:25:21;19.40;99.90
3380;DHT22;1703;51.964;7.642;2023-08-06T09:27:50;19.40;99.90
3380;DHT22;1703;51.964;7.642;2023-08-06T09:30:29;19.50;99.90
3380;DHT22;1703;51.964;7.642;2023-08-06T09:32:58;19.50;99.90
3380;DHT22;1703;51.964;7.642;2023-08-06T09:35:28;19.70;99.90
3380;DHT22;1703;51.964;7.642;2023-08-06T09:37:55;19.80;99.90
3380;DHT22;1703;51.964;7.642;2023-08-06T09:40:25;19.90;99.90
3380;DHT22;1703;51.964;7.642;2023-08-06T09:42:52;20.00;99.90
3380;DHT22;1703;51.964;7.642;2023-08-06T09:45:19;19.90;99.90
3380;DHT22;1703;51.964;7.642;2023-08-06T09:47:47;20.00;99.90
3380;DHT22;1703;51.964;7.642;2023-08-06T09:50:19;20.20;99.90
3380;DHT22;1703;51.964;7.642;2023-08-06T09:52:47;20.30;99.90
3380;DHT22;1703;51.964;7.642;2023-08-06T09:55:14;20.30;99.90
3380;DHT22;1703;51.964;7.642;2023-08-06T09:57:42;20.40;99.90
3380;DHT22;1703;51.964;7.642;2023-08-06T10:00:10;20.50;99.90
3380;DHT22;1703;51.964;7.642;2023-08-06T10:02:40;20.60;99.90
3380;DHT22;1703;51.964;7.642;2023-08-06T10:05:08;20.70;99.90
3380;DHT22;1703;51.964;7.642;2023-08-06T10:07:37;20.60;99.90
3380;DHT22;1703;51.964;7.642;2023-08-06T10:10:06;20.40;99.90
3380;DHT22;1703;51.964;7.642;2023-08-06T10:12:35;20.40;99.90
3380;DHT22;1703;51.964;7.642;2023-08-06T10:15:08;20.40;99.90
3380;DHT22;1703;51.964;7.642;2023-08-06T10:17:36;20.30;99.90
3380;DHT22;1703;51.964;7.642;2023-08-06T10:20:05;20.20;99.90
3380;DHT22;1703;51.964;7.642;2023-08-06T10:22:33;20.20;99.90
3380;DHT22;1703;51.964;7.642;2023-08-06T10:25:07;20.30;99.90
3380;DHT22;1703;51.964;7.642;2023-08-06T10:27:35;20.30;99.90
3380;DHT22;1703;51.964;7.642;2023-08-06T10:30:23;20.40;99.90
3380;DHT22;1703;51.964;7.642;2023-08-06T10:32:50;20.30;99.90
3380;DHT22;1703;51.964;7.642;2023-08-06T10:35:34;20.30;99.90
3380;DHT22;1703;51.964;7.642;2023-08-06T10:38:05;20.40;99.90
3380;DHT22;1703;51.964;7.642;2023-08-06T10:40:35;20.50;99.90
3380;DHT22;1703;51.964;7.642;2023-08-06T10:43:03;20.60;99.90
3380;DHT22;1703;51.964;7.642;2023-08-06T10:45:34;20.60;99.90
3380;DHT22;1703;51.964;7.642;2023-08-06T10:48:01;20.60;99.90
3380;DHT22;1703;51.964;7.642;2023-08-06T10:50:28;20.60;99.90
3380;DHT22;1703;51.964;7.642;2023-08-06T10:52:56;20.60;99.90
3380;DHT22;1703;51.964;7.642;2023-08-06T10:55:25;20.70;99.90
3380;DHT22;1703;51.964;7.642;2023-08-06T10:57:54;20.70;99.90
3380;DHT22;1703;51.964;7.642;2023-08-06T11:00:21;20.80;99.90
3380;DHT22;1703;51.964;7.642;2023-08-06T11:02:49;20.90;99.90
3380;DHT22;1703;51.964;7.642;2023-08-06T11:05:16;21.00;99.90
3380;DHT22;1703;51.964;7.642;2023-08-06T11:07:43;21.10;99.90
3380;DHT22;1703;51.964;7.642;2023-08-06T11:10:11;21.30;99.90
3380;DHT22;1703;51.964;7.642;2023-08-06T11:12:39;21.30;99.90
3380;DHT22;1703;51.964;7.642;2023-08-06T11:15:08;21.40;99.90
3380;DHT22;1703;51.964;7.642;2023-08-06T11:17:36;21.40;99.90
3380;DHT22;1703;51.964;7.642;2023-08-06T11:20:04;21.30;99.90
3380;DHT22;1703;51.964;7.642;2023-08-06T11:22:31;21.30;99.90
3380;DHT22;1703;51.964;7.642;2023-08-06T11:24:58;21.30;99.90
3380;DHT22;1703;51.964;7.642;2023-08-06T11:27:27;21.30;99.90
3380;DHT22;1703;51.964;7.642;2023-08-06T11:29:54;21.30;99.90
3380;DHT22;1703;51.964;7.642;2023-08-06T11:32:23;21.50;99.90
3380;DHT22;1703;51.964;7.642;2023-08-06T11:34:50;21.70;99.90
3380;DHT22;1703;51.964;7.642;2023-08-06T11:37:20;21.80;99.90
3380;DHT22;1703;51.964;7.642;2023-08-06T11:39:48;21.90;99.90
3380;DHT22;1703;51.964;7.642;2023-08-06T11:42:15;21.90;99.90
3380;DHT22;1703;51.964;7.642;2023-08-06T11:44:42;21.90;99.90
3380;DHT22;1703;51.964;7.642;2023-08-06T11:47:13;21.80;99.90
3380;DHT22;1703;51.964;7.642;2023-08-06T11:49:43;21.90;99.90
3380;DHT22;1703;51.964;7.642;2023-08-06T11:52:14;22.20;99.90
3380;DHT22;1703;51.964;7.642;2023-08-06T11:54:41;22.30;99.90
3380;DHT22;1703;51.964;7.642;2023-08-06T11:57:09;22.20;99.90
3380;DHT22;1703;51.964;7.642;2023-08-06T11:59:37;22.40;99.90
3380;DHT22;1703;51.964;7.642;2023-08-06T12:02:05;22.30;99.90
3380;DHT22;1703;51.964;7.642;2023-08-06T12:05:02;22.30;99.90
3380;DHT22;1703;51.964;7.642;2023-08-06T12:07:31;22.00;99.90
3380;DHT22;1703;51.964;7.642;2023-08-06T12:09:58;21.90;99.90
3380;DHT22;1703;51.964;7.642;2023-08-06T12:12:25;21.80;99.90
3380;DHT22;1703;51.964;7.642;2023-08-06T12:14:52;21.80;99.90
3380;DHT22;1703;51.964;7.642;2023-08-06T12:17:19;21.70;99.90
3380;DHT22;1703;51.964;7.642;2023-08-06T12:19:46;21.60;99.90
3380;DHT22;1703;51.964;7.642;2023-08-06T12:22:15;21.50;99.90
3380;DHT22;1703;51.964;7.642;2023-08-06T12:24:43;21.40;99.90
3380;DHT22;1703;51.964;7.642;2023-08-06T12:27:10;21.30;99.90
3380;DHT22;1703;51.964;7.642;2023-08-06T12:29:40;21.20;99.90
3380;DHT22;1703;51.964;7.642;2023-08-06T12:32:07;21.30;99.90
3380;DHT22;1703;51.964;7.642;2023-08-06T12:34:34;21.20;99.90
3380;DHT22;1703;51.964;7.642;2023-08-06T12:37:01;21.20;99.90
3380;DHT22;1703;51.964;7.642;2023-08-06T12:39:29;21.20;99.90
3380;DHT22;1703;51.964;7.642;2023-08-06T12:41:57;21.30;99.90
3380;DHT22;1703;51.964;7.642;2023-08-06T12:44:23;21.40;99.90
3380;DHT22;1703;51.964;7.642;2023-08-06T12:46:51;21.20;99.90
3380;DHT22;1703;51.964;7.642;2023-08-06T12:49:17;21.30;99.90
3380;DHT22;1703;51.964;7.642;2023-08-06T12:51:46;21.20;99.90
3380;DHT22;1703;51.964;7.642;2023-08-06T12:54:13;21.30;99.90
3380;DHT22;1703;51.964;7.642;2023-08-06T12:56:41;21.30;99.90
3380;DHT22;1703;51.964;7.642;2023-08-06T12:59:08;21.20;99.90
3380;DHT22;1703;51.964;7.642;2023-08-06T13:01:36;21.30;99.90
3380;DHT22;1703;51.964;7.642;2023-08-06T13:04:03;21.30;99.90
3380;DHT22;1703;51.964;7.642;2023-08-06T13:06:30;21.30;99.90
3380;DHT22;1703;51.964;7.642;2023-08-06T13:09:01;21.20;99.90
3380;DHT22;1703;51.964;7.642;2023-08-06T13:11:29;21.30;99.90
3380;DHT22;1703;51.964;7.642;2023-08-06T13:14:03;21.30;99.90
3380;DHT22;1703;51.964;7.642;2023-08-06T13:16:30;21.40;99.90
3380;DHT22;1703;51.964;7.642;2023-08-06T13:18:57;21.50;99.90
3380;DHT22;1703;51.964;7.642;2023-08-06T13:21:23;21.40;99.90
3380;DHT22;1703;51.964;7.642;2023-08-06T13:23:50;21.30;99.90
3380;DHT22;1703;51.964;7.642;2023-08-06T13:26:17;21.10;99.90
3380;DHT22;1703;51.964;7.642;2023-08-06T13:28:44;21.10;99.90
3380;DHT22;1703;51.964;7.642;2023-08-06T13:31:12;21.00;99.90
3380;DHT22;1703;51.964;7.642;2023-08-06T13:33:39;20.90;99.90
3380;DHT22;1703;51.964;7.642;2023-08-06T13:36:06;20.90;99.90
3380;DHT22;1703;51.964;7.642;2023-08-06T13:38:33;20.90;99.90
3380;DHT22;1703;51.964;7.642;2023-08-06T13:41:01;21.00;99.90
3380;DHT22;1703;51.964;7.642;2023-08-06T13:43:28;20.90;99.90
3380;DHT22;1703;51.964;7.642;2023-08-06T13:45:55;20.90;99.90
3380;DHT22;1703;51.964;7.642;2023-08-06T13:48:23;20.80;99.90
3380;DHT22;1703;51.964;7.642;2023-08-06T13:50:50;20.70;99.90
3380;DHT22;1703;51.964;7.642;2023-08-06T13:53:17;20.70;99.90
3380;DHT22;1703;51.964;7.642;2023-08-06T13:55:43;20.70;99.90
3380;DHT22;1703;51.964;7.642;2023-08-06T13:58:10;20.70;99.90
3380;DHT22;1703;51.964;7.642;2023-08-06T14:00:37;20.60;99.90
3380;DHT22;1703;51.964;7.642;2023-08-06T14:03:04;20.70;99.90
3380;DHT22;1703;51.964;7.642;2023-08-06T14:05:32;20.70;99.90
3380;DHT22;1703;51.964;7.642;2023-08-06T14:07:59;20.70;99.90
3380;DHT22;1703;51.964;7.642;2023-08-06T14:10:26;20.80;99.90
3380;DHT22;1703;51.964;7.642;2023-08-06T14:12:53;20.80;99.90
3380;DHT22;1703;51.964;7.642;2023-08-06T14:15:20;20.90;99.90
3380;DHT22;1703;51.964;7.642;2023-08-06T14:17:47;20.90;99.90
3380;DHT22;1703;51.964;7.642;2023-08-06T14:20:15;20.90;99.90
3380;DHT22;1703;51.964;7.642;2023-08-06T14:22:43;20.70;99.90
3380;DHT22;1703;51.964;7.642;2023-08-06T14:25:10;20.60;99.90
3380;DHT22;1703;51.964;7.642;2023-08-06T14:27:37;20.50;99.90
3380;DHT22;1703;51.964;7.642;2023-08-06T14:30:05;20.40;99.90
3380;DHT22;1703;51.964;7.642;2023-08-06T14:32:32;20.20;99.90
3380;DHT22;1703;51.964;7.642;2023-08-06T14:35:00;20.00;99.90
3380;DHT22;1703;51.964;7.642;2023-08-06T14:37:27;19.70;99.90
3380;DHT22;1703;51.964;7.642;2023-08-06T14:39:55;19.50;99.90
3380;DHT22;1703;51.964;7.642;2023-08-06T14:42:22;19.20;99.90
3380;DHT22;1703;51.964;7.642;2023-08-06T14:44:49;18.90;99.90
3380;DHT22;1703;51.964;7.642;2023-08-06T14:47:16;18.60;99.90
3380;DHT22;1703;51.964;7.642;2023-08-06T14:49:43;18.30;99.90
3380;DHT22;1703;51.964;7.642;2023-08-06T14:52:10;18.20;99.90
3380;DHT22;1703;51.964;7.642;2023-08-06T14:54:37;18.10;99.90
3380;DHT22;1703;51.964;7.642;2023-08-06T14:57:05;17.90;99.90
3380;DHT22;1703;51.964;7.642;2023-08-06T14:59:33;17.80;99.90
3380;DHT22;1703;51.964;7.642;2023-08-06T15:02:00;17.70;99.90
3380;DHT22;1703;51.964;7.642;2023-08-06T15:04:31;17.50;99.90
3380;DHT22;1703;51.964;7.642;2023-08-06T15:06:58;17.30;99.90
3380;DHT22;1703;51.964;7.642;2023-08-06T15:09:25;17.20;99.90
3380;DHT22;1703;51.964;7.642;2023-08-06T15:11:52;17.00;99.90
3380;DHT22;1703;51.964;7.642;2023-08-06T15:14:21;17.00;99.90
3380;DHT22;1703;51.964;7.642;2023-08-06T15:16:48;16.90;99.90
3380;DHT22;1703;51.964;7.642;2023-08-06T15:19:17;16.80;99.90
3380;DHT22;1703;51.964;7.642;2023-08-06T15:21:43;16.70;99.90
3380;DHT22;1703;51.964;7.642;2023-08-06T15:24:10;16.70;99.90
3380;DHT22;1703;51.964;7.642;2023-08-06T15:26:37;16.70;99.90
3380;DHT22;1703;51.964;7.642;2023-08-06T15:29:04;16.60;99.90
3380;DHT22;1703;51.964;7.642;2023-08-06T15:31:38;16.60;99.90
3380;DHT22;1703;51.964;7.642;2023-08-06T15:34:05;16.60;99.90
3380;DHT22;1703;51.964;7.642;2023-08-06T15:36:32;16.60;99.90
3380;DHT22;1703;51.964;7.642;2023-08-06T15:38:59;16.50;99.90
3380;DHT22;1703;51.964;7.642;2023-08-06T15:41:26;16.50;99.90
3380;DHT22;1703;51.964;7.642;2023-08-06T15:43:53;16.50;99.90
3380;DHT22;1703;51.964;7.642;2023-08-06T15:46:20;16.40;99.90
3380;DHT22;1703;51.964;7.642;2023-08-06T15:48:48;16.40;99.90
3380;DHT22;1703;51.964;7.642;2023-08-06T15:51:15;16.40;99.90
3380;DHT22;1703;51.964;7.642;2023-08-06T15:53:42;16.40;99.90
3380;DHT22;1703;51.964;7.642;2023-08-06T15:56:09;16.40;99.90
3380;DHT22;1703;51.964;7.642;2023-08-06T15:58:36;16.50;99.90
3380;DHT22;1703;51.964;7.642;2023-08-06T16:01:03;16.60;99.90
3380;DHT22;1703;51.964;7.642;2023-08-06T16:03:30;16.60;99.90
3380;DHT22;1703;51.964;7.642;2023-08-06T16:05:58;16.60;99.90